EGTE - Exeter Airport
Distance from station: E 5mi, 14km
Updated: 10/18/2017 2:50pm
Few Clouds
Few Clouds
 Wind from SSE
Wind: SSE 7 mph , 11 km/h
Temperature: 54°F , 12°C
Dew Point: 52°F , 11°C
Humidity: 94%
Barometer: 29.8 inHg , 1009 hPa
Clouds: Few Clouds
Visibility: 6 miles , 10 km
Cloud details: Few Clouds 1500 ft
2017/10/18 21:50 EGTE 182150Z 15006KT 9999 FEW015 12/11 Q1009